Copalis Beach, Washington
Current Conditions -  °F | °C
As of 6:24 AM on Saturday 20 Dec 2014 (Local Time) from KHQM Reporting Station
Light Rain Light Rain  
Wind Chill: 43°   Ceiling: 900
Heat Index: 47°   Visibility: 3mi
Dew Point: 46°   Wind: 9mph
Humidity: 97%   Direction: 50°NE
Pressure: 29.57"   Gusts: NA
Location:  47.11°N, 124.18°W
Report Text: KHQM 201424Z AUTO 05008KT 3SM -RA BR BKN009 OVC012 08/08 A2957 RMK AO2 P0001 T00830078
Loading
Personal Weather Stations






























Interactive Weather Map New forecast layout! Learn more

10-Day Weather Forecast

Advertisements
Track Severe Weather on mobile